Johnson Creek, Wisconsin
Current Conditions -  °F | °C
As of 9:55 AM on Friday 24 Oct 2014 (Local Time) from KRYV Reporting Station
Haze Haze  
Wind Chill: 49°   Ceiling: 300
Heat Index: 49°   Visibility: 4mi
Dew Point: 49°   Wind: 3mph
Humidity: 100%   Direction: 160°SSE
Pressure: 30.04"   Gusts: NA
Location:  43.08°N, 88.77°W
Report Text: KRYV 241455Z AUTO 16003KT 4SM BR OVC003 09/09 A3004 RMK AO2 T00920092
Loading
Personal Weather Stations






























Interactive Weather Map New forecast layout! Learn more

10-Day Weather Forecast

Advertisements
Track Severe Weather on mobile